Franklin Grove, IL

5:32 AM CDT on July 29, 2015 (GMT -0500)
Lost Lake Ogle County, Illinois | | Change Station
CLOSE
Current Station
Personal Weather Station
Location: Dixon, IL
Elevation: 761 ft
Nearby Weather Stations

Elev 761 ft 41.91 °N, 89.35 °W | Updated 7 seconds ago

Partly Cloudy
Partly Cloudy
73.0 °F
Feels Like 73.0 °F
N
0.0
Wind Variable Wind from WSW
Gusts 0.0 mph

Today
High -- | Low -- °F
--% Chance of Precip.
Yesterday
High -- | Low -- °F
Precip. -- in
5:47 AM 8:18 PM
Waxing Gibbous, 95% visible
Pressure 29.96 in
Visibility 5.0 miles
Clouds Overcast 6000 ft
Dew Point 72 °F
Humidity 98%
Rainfall 0.00 in
Snow Depth Not available.
UV 0 out of 12
Pollen 6.20 out of 12
Air Quality Not available.
Flu Activity Not available.
METAR KRPJ 291015Z AUTO 26003KT 5SM BR OVC060 22/22 A2996 RMK AO2 T02210219

More Conditions Fewer Conditions

Pressure 29.96 in
Visibility 5.0 miles
Clouds Overcast 6000 ft
Dew Point 72 °F
Humidity 98%
Rainfall 0.00 in
Snow Depth Not available.
UV 0 out of 12
Pollen 6.20 out of 12
Air Quality Not available.
Flu Activity Not available.
METAR KRPJ 291015Z AUTO 26003KT 5SM BR OVC060 22/22 A2996 RMK AO2 T02210219

More Conditions Fewer Conditions

10-Day Weather Forecast

×

Almanac

Astronomy

Jul. 29, 2015 Rise Set
Actual Time
Civil Twilight
Nautical Twilight
Astronomical Twilight
Moon
Length of Visible Light
Length of Day
Tomorrow will be .
, % of the Moon is Illuminated

Today's Extremes

State Highs State Lows

Community

WunderPhotos

Upload Photos

1,842,069 photos uploaded!

WunderBlogs® & News

Nearby

Air Quality

  Air Quality AQ Index Pollutant
Not available.

Snow Depth

Station Depth Elevation

Earthquake Activity

City Distance Mag. Time & Date
Minimum magnitude displayed is 2.5.

Coastal Water Temperatures

Place Temperature

Stations

Nearby Weather Stations

Station Location Temp. Windchill Dew Point Humidity Wind Precip. Elev Updated Type